Nearby METAR Reports

 

EIDW - Dublin Airport, Ireland
Distance from station: ENE 79km
Updated: 05/08/2021 17:30
Light rain, Showers, Mostly cloudy
Light rain, Showers, Mostly cloudy
 Wind from SW
Wind: SW 17 km/h
Temperature: 16°C
Dew Point: 14°C
Humidity: 88%
Barometer: 992 hPa
Summary: Light rain, Showers
Clouds: Mostly cloudy
Visibility: 8 km
Cloud details: Few Clouds 183 m
Partly cloudy 549 m
Mostly cloudy 792 m
2021/08/05 16:30 EIDW 051630Z 23009KT 200V280 8000 -SHRA FEW006 SCT018CB BKN026 16/14 Q0992 WS RWY28L TEMPO 4000 SHRA BKN012
EIME - Casement (mil), Ireland
Distance from station: ENE 62km
Updated: 05/08/2021 17:00
Light rain, Showers, Partly cloudy
Light rain, Showers, Partly cloudy
 Wind from SW
Wind: SW 20 km/h, Gust: 43 km/h
Temperature: 17°C
Dew Point: 16°C
Humidity: 94%
Barometer: 992 hPa
Summary: Light rain, Showers
Clouds: Partly cloudy
Visibility: 10 km
Cloud details: Mostly cloudy 549 m
Partly cloudy 853 m
2021/08/05 16:00 EIME 051600Z 23011G23KT 9999 -SHRA BKN018CB SCT028 17/16 Q0992
EIWF - Waterford Arpt, Ireland
Distance from station: S 111km
Updated: 05/08/2021 17:30
Drizzle, Mostly cloudy
Drizzle, Mostly cloudy
 Wind from SW
Wind: SW 22 km/h
Temperature: 16°C
Dew Point: 14°C
Humidity: 88%
Barometer: 992 hPa
Summary: Drizzle
Clouds: Mostly cloudy
Visibility: 10 km
Cloud details: Mostly cloudy 274 m
2021/08/05 16:30 EIWF 051630Z 23012KT 210V270 9999 DZ BKN009 16/14 Q0992
 
EINN - Shannon Airport, Ireland
Distance from station: WSW 117km
Updated: 05/08/2021 17:30
Mostly cloudy
Mostly cloudy
 Wind from WSW
Wind: WSW 22 km/h
Temperature: 18°C
Dew Point: 16°C
Humidity: 88%
Barometer: 991 hPa
Clouds: Mostly cloudy
Visibility: 10 km
Cloud details: Partly cloudy 457 m
Partly cloudy 549 m
Mostly cloudy 762 m
2021/08/05 16:30 EINN 051630Z 24012KT 9999 SCT015 SCT018CB BKN025 18/16 Q0991 NOSIG
EISG - Sligo Arpt, Ireland
Distance from station: NNW 148km
Updated: 05/08/2021 17:30
Rain, Overcast
Rain, Overcast
 Wind from varies
Wind: varies 2 km/h
Temperature: 15°C
Dew Point: 15°C
Humidity: 100%
Barometer: 990 hPa
Summary: Rain
Clouds: Overcast
Visibility: 5 km
Cloud details: Mostly cloudy 457 m
Mostly cloudy 701 m
Overcast 914 m
2021/08/05 16:30 EISG 051630Z VRB01KT 5000 RA BKN015 BKN023 OVC030 15/15 Q0990
EICK - Cork Arpt/Corcai, Ireland
Distance from station: SSW 165km
Updated: 05/08/2021 17:30
Nearby showers, Partly cloudy
Nearby showers, Partly cloudy
 Wind from WSW
Wind: WSW 28 km/h
Temperature: 19°C
Dew Point: 15°C
Humidity: 78%
Barometer: 992 hPa
Summary: Nearby Showers
Clouds: Partly cloudy
Visibility: 10 km
Cloud details: Mostly cloudy 518 m
Partly cloudy 1250 m
2021/08/05 16:30 EICK 051630Z 24015KT 9999 VCSH BKN017CB SCT041 19/15 Q0992 NOSIG
 
EGAA - Belfast/Aldergro, United Kingdom
Distance from station: NNE 179km
Updated: 05/08/2021 17:20
Light drizzle, Haze, Overcast
Light drizzle, Haze, Overcast
 Wind from SE
Wind: SE 17 km/h
Temperature: 15°C
Dew Point: 15°C
Humidity: 100%
Barometer: 992 hPa
Summary: Light drizzle, Haze
Clouds: Overcast
Visibility: 3 km
Cloud details: Mostly cloudy 244 m
Overcast 427 m
2021/08/05 16:20 EGAA 051620Z AUTO 14009KT 2600 -DZ HZ BKN008 OVC014 15/15 Q0992 REDZ
EIKY - Kerry Arpt, Ireland
Distance from station: SW 182km
Updated: 05/08/2021 14:30
NOT Current
Mostly cloudy
Mostly cloudy
 Wind from W
Wind: W 26 km/h
Temperature: 19°C
Dew Point: 16°C
Humidity: 83%
Barometer: 992 hPa
Clouds: Mostly cloudy
Visibility: 10 km
Cloud details: Mostly cloudy 427 m
Mostly cloudy 579 m
2021/08/05 13:30 EIKY 051330Z 26014KT 230V290 9999 BKN014 BKN019 19/16 Q0992
EGAC - Belfast Harbour, United Kingdom
Distance from station: NNE 188km
Updated: 05/08/2021 17:20
Light rain, Drizzle, Overcast
Light rain, Drizzle, Overcast
 Wind from SE
Wind: SE 26 km/h
Temperature: 15°C
Dew Point: 14°C
Humidity: 94%
Barometer: 992 hPa
Summary: Light rain, Drizzle
Clouds: Overcast
Visibility: 6 km
Cloud details: Mostly cloudy 183 m
Overcast 427 m
2021/08/05 16:20 EGAC 051620Z 14014KT 6000 -RADZ BKN006 OVC014 15/14 Q0992
 
EGOV - Valley Raf, United Kingdom
Distance from station: E 188km
Updated: 05/08/2021 17:20
Mostly cloudy
Mostly cloudy
 Wind from S
Wind: S 31 km/h
Temperature: 16°C
Dew Point: 15°C
Humidity: 94%
Barometer: 994 hPa
Clouds: Mostly cloudy
Visibility: 10 km
Cloud details: Few Clouds 122 m
Mostly cloudy 1067 m
Mostly cloudy 1829 m
2021/08/05 16:20 EGOV 051620Z 19017KT 9999 FEW004 BKN035 BKN060 16/15 Q0994 TEMPO SCT005 RMK BLU TEMPO YLO1
EGNS - Isle Of Man/Rona, United Kingdom
Distance from station: ENE 207km
Updated: 05/08/2021 17:20
Rain drizzle, Overcast
Rain drizzle, Overcast
 Wind from SE
Wind: SE 39 km/h
Temperature: 16°C
Dew Point: 15°C
Humidity: 94%
Barometer: 994 hPa
Summary: Rain Drizzle
Clouds: Overcast
Visibility: 4 km
Cloud details: Few Clouds 122 m
Mostly cloudy 305 m
Overcast 457 m
2021/08/05 16:20 EGNS 051620Z 13021KT 3500 RADZ FEW004 BKN010 OVC015 16/15 Q0994 BECMG 9999 NSW SCT010